Terminal Aerodrome Forecast
Issued by NWS Greer, SC

Home | Current Version | Previous Version | Text Only | Print | Product List | Glossary On
Versions: 1 2 3 4 5 6 7 8 9 10 11 12 13 14
000
FTUS42 KGSP 110540
TAFAVL
TAF
KAVL 110540Z 1106/1206 14004KT P6SM SKC
     FM111900 17008KT P6SM OVC035
     FM112100 17006KT P6SM -DZ OVC030
     FM120100 16004KT 6SM -DZ OVC015 WS020/20035KT PROB30 1201/1206
      2SM -RA OVC008=

USA.gov is the U.S. government's official web portal to all federal, state and local government web resources and services.